sensor_id;sensor_type;location;lat;lon;timestamp;pressure;altitude;pressure_sealevel;temperature;humidity
10732;BME280;5417;42.686;23.244;2023-05-21T00:02:14;94154.00;;;15.81;nan
10732;BME280;5417;42.686;23.244;2023-05-21T00:04:42;94154.31;;;15.78;nan
10732;BME280;5417;42.686;23.244;2023-05-21T00:07:25;94157.44;;;15.73;nan
10732;BME280;5417;42.686;23.244;2023-05-21T00:13:22;94145.28;;;15.64;nan
10732;BME280;5417;42.686;23.244;2023-05-21T00:34:34;94140.59;;;15.34;nan
10732;BME280;5417;42.686;23.244;2023-05-21T00:37:57;94136.47;;;15.31;nan
10732;BME280;5417;42.686;23.244;2023-05-21T00:44:08;94129.75;;;15.21;nan
10732;BME280;5417;42.686;23.244;2023-05-21T00:46:38;94126.63;;;15.17;nan
10732;BME280;5417;42.686;23.244;2023-05-21T00:50:00;94127.75;;;15.14;nan
10732;BME280;5417;42.686;23.244;2023-05-21T00:52:21;94125.28;;;15.13;nan
10732;BME280;5417;42.686;23.244;2023-05-21T00:54:51;94127.53;;;15.08;nan
10732;BME280;5417;42.686;23.244;2023-05-21T00:57:18;94122.78;;;15.03;nan
10732;BME280;5417;42.686;23.244;2023-05-21T00:59:46;94125.41;;;15.03;nan
10732;BME280;5417;42.686;23.244;2023-05-21T01:02:15;94114.41;;;15.00;nan
10732;BME280;5417;42.686;23.244;2023-05-21T01:08:12;94117.03;;;15.00;nan
10732;BME280;5417;42.686;23.244;2023-05-21T01:10:39;94120.94;;;14.96;nan
10732;BME280;5417;42.686;23.244;2023-05-21T01:13:06;94109.66;;;14.95;nan
10732;BME280;5417;42.686;23.244;2023-05-21T01:15:33;94110.78;;;14.93;nan
10732;BME280;5417;42.686;23.244;2023-05-21T01:18:02;94115.72;;;14.96;nan
10732;BME280;5417;42.686;23.244;2023-05-21T01:20:30;94101.28;;;14.92;nan
10732;BME280;5417;42.686;23.244;2023-05-21T01:22:59;94114.22;;;14.93;nan
10732;BME280;5417;42.686;23.244;2023-05-21T01:25:26;94113.41;;;14.93;nan
10732;BME280;5417;42.686;23.244;2023-05-21T01:27:52;94099.28;;;14.86;nan
10732;BME280;5417;42.686;23.244;2023-05-21T01:30:36;94110.94;;;14.91;nan
10732;BME280;5417;42.686;23.244;2023-05-21T01:33:09;94106.69;;;14.90;nan
10732;BME280;5417;42.686;23.244;2023-05-21T01:35:42;94096.69;;;14.86;nan
10732;BME280;5417;42.686;23.244;2023-05-21T01:38:15;94103.72;;;14.85;nan
10732;BME280;5417;42.686;23.244;2023-05-21T01:47:23;94102.03;;;14.76;nan
10732;BME280;5417;42.686;23.244;2023-05-21T01:49:50;94106.31;;;14.77;nan
10732;BME280;5417;42.686;23.244;2023-05-21T01:52:17;94103.69;;;14.77;nan
10732;BME280;5417;42.686;23.244;2023-05-21T01:58:02;94104.81;;;14.74;nan
10732;BME280;5417;42.686;23.244;2023-05-21T02:00:28;94098.25;;;14.70;nan
10732;BME280;5417;42.686;23.244;2023-05-21T02:02:56;94103.19;;;14.73;nan
10732;BME280;5417;42.686;23.244;2023-05-21T02:05:25;94091.88;;;14.73;nan
10732;BME280;5417;42.686;23.244;2023-05-21T02:07:53;94085.16;;;14.70;nan
10732;BME280;5417;42.686;23.244;2023-05-21T02:11:14;94091.88;;;14.73;nan
10732;BME280;5417;42.686;23.244;2023-05-21T02:13:35;94086.78;;;14.71;nan
10732;BME280;5417;42.686;23.244;2023-05-21T02:16:06;94092.53;;;14.75;nan
10732;BME280;5417;42.686;23.244;2023-05-21T02:18:36;94084.84;;;14.73;nan
10732;BME280;5417;42.686;23.244;2023-05-21T02:24:30;94092.34;;;14.68;nan
10732;BME280;5417;42.686;23.244;2023-05-21T02:26:57;94087.44;;;14.65;nan
10732;BME280;5417;42.686;23.244;2023-05-21T02:29:25;94088.91;;;14.68;nan
10732;BME280;5417;42.686;23.244;2023-05-21T03:01:08;94085.41;;;14.33;nan
10732;BME280;5417;42.686;23.244;2023-05-21T03:03:38;94081.31;;;14.31;nan
10732;BME280;5417;42.686;23.244;2023-05-21T03:06:05;94071.63;;;14.23;nan
10732;BME280;5417;42.686;23.244;2023-05-21T03:08:35;94071.47;;;14.25;nan
10732;BME280;5417;42.686;23.244;2023-05-21T03:11:03;94085.06;;;14.28;nan
10732;BME280;5417;42.686;23.244;2023-05-21T03:13:29;94084.09;;;14.29;nan
10732;BME280;5417;42.686;23.244;2023-05-21T03:15:59;94097.19;;;14.29;nan
10732;BME280;5417;42.686;23.244;2023-05-21T03:18:28;94099.94;;;14.28;nan
10732;BME280;5417;42.686;23.244;2023-05-21T03:30:51;94095.88;;;14.33;nan
10732;BME280;5417;42.686;23.244;2023-05-21T03:33:44;94100.81;;;14.36;nan
10732;BME280;5417;42.686;23.244;2023-05-21T03:42:32;94100.88;;;14.44;nan
10732;BME280;5417;42.686;23.244;2023-05-21T03:44:58;94094.53;;;14.47;nan
10732;BME280;5417;42.686;23.244;2023-05-21T03:47:29;94100.63;;;14.56;nan
10732;BME280;5417;42.686;23.244;2023-05-21T03:53:24;94100.69;;;14.64;nan
10732;BME280;5417;42.686;23.244;2023-05-21T04:21:43;94094.34;;;15.17;nan
10732;BME280;5417;42.686;23.244;2023-05-21T04:24:10;94083.50;;;15.11;nan
10732;BME280;5417;42.686;23.244;2023-05-21T04:27:03;94096.31;;;15.23;nan
10732;BME280;5417;42.686;23.244;2023-05-21T04:29:31;94092.41;;;15.35;nan
10732;BME280;5417;42.686;23.244;2023-05-21T04:32:52;94086.00;;;15.37;nan
10732;BME280;5417;42.686;23.244;2023-05-21T04:38:41;94095.53;;;15.38;nan
10732;BME280;5417;42.686;23.244;2023-05-21T04:41:08;94089.78;;;15.43;nan
10732;BME280;5417;42.686;23.244;2023-05-21T04:44:01;94090.78;;;15.50;nan
10732;BME280;5417;42.686;23.244;2023-05-21T04:46:27;94098.00;;;15.56;nan
10732;BME280;5417;42.686;23.244;2023-05-21T04:49:49;94096.19;;;15.57;nan
10732;BME280;5417;42.686;23.244;2023-05-21T04:52:11;94096.06;;;15.58;nan
10732;BME280;5417;42.686;23.244;2023-05-21T04:54:40;94091.34;;;15.62;nan
10732;BME280;5417;42.686;23.244;2023-05-21T04:58:30;94089.53;;;15.78;nan
10732;BME280;5417;42.686;23.244;2023-05-21T05:00:31;94089.53;;;15.87;nan
10732;BME280;5417;42.686;23.244;2023-05-21T05:03:36;94074.28;;;15.82;nan
10732;BME280;5417;42.686;23.244;2023-05-21T05:06:03;94080.50;;;16.05;nan
10732;BME280;5417;42.686;23.244;2023-05-21T05:08:30;94081.50;;;16.21;nan
10732;BME280;5417;42.686;23.244;2023-05-21T05:11:22;94097.00;;;16.55;nan
10732;BME280;5417;42.686;23.244;2023-05-21T05:13:51;94094.19;;;16.64;nan
10732;BME280;5417;42.686;23.244;2023-05-21T05:16:18;94091.72;;;16.79;nan
10732;BME280;5417;42.686;23.244;2023-05-21T05:18:51;94092.50;;;16.88;nan
10732;BME280;5417;42.686;23.244;2023-05-21T05:21:20;94085.75;;;16.93;nan
10732;BME280;5417;42.686;23.244;2023-05-21T05:23:47;94091.38;;;16.82;nan
10732;BME280;5417;42.686;23.244;2023-05-21T05:26:14;94093.03;;;17.14;nan
10732;BME280;5417;42.686;23.244;2023-05-21T05:28:42;94079.50;;;17.56;nan
10732;BME280;5417;42.686;23.244;2023-05-21T05:31:10;94086.69;;;18.08;nan
10732;BME280;5417;42.686;23.244;2023-05-21T05:38:56;94074.31;;;19.35;nan
10732;BME280;5417;42.686;23.244;2023-05-21T05:41:23;94067.31;;;19.63;nan
10732;BME280;5417;42.686;23.244;2023-05-21T05:43:52;94075.19;;;19.99;nan
10732;BME280;5417;42.686;23.244;2023-05-21T05:46:19;94071.09;;;20.39;nan
10732;BME280;5417;42.686;23.244;2023-05-21T05:49:11;94080.88;;;20.73;nan
10732;BME280;5417;42.686;23.244;2023-05-21T05:51:56;94069.81;;;20.91;nan
10732;BME280;5417;42.686;23.244;2023-05-21T05:54:23;94069.72;;;21.19;nan
10732;BME280;5417;42.686;23.244;2023-05-21T05:56:50;94072.88;;;21.36;nan
10732;BME280;5417;42.686;23.244;2023-05-21T05:59:18;94070.72;;;21.59;nan
10732;BME280;5417;42.686;23.244;2023-05-21T06:01:45;94077.47;;;21.75;nan
10732;BME280;5417;42.686;23.244;2023-05-21T06:04:12;94070.34;;;21.76;nan
10732;BME280;5417;42.686;23.244;2023-05-21T06:06:38;94071.03;;;22.11;nan
10732;BME280;5417;42.686;23.244;2023-05-21T06:09:06;94071.66;;;22.32;nan
10732;BME280;5417;42.686;23.244;2023-05-21T06:11:33;94068.41;;;22.44;nan
10732;BME280;5417;42.686;23.244;2023-05-21T06:17:19;94067.34;;;22.64;nan
10732;BME280;5417;42.686;23.244;2023-05-21T06:19:46;94056.50;;;22.79;nan
10732;BME280;5417;42.686;23.244;2023-05-21T06:22:13;94049.78;;;22.77;nan
10732;BME280;5417;42.686;23.244;2023-05-21T06:24:40;94034.03;;;22.88;nan
10732;BME280;5417;42.686;23.244;2023-05-21T06:27:07;94054.03;;;23.04;nan
10732;BME280;5417;42.686;23.244;2023-05-21T06:29:34;94049.31;;;23.13;nan
10732;BME280;5417;42.686;23.244;2023-05-21T06:32:02;94048.59;;;23.30;nan
10732;BME280;5417;42.686;23.244;2023-05-21T06:34:30;94044.13;;;23.24;nan
10732;BME280;5417;42.686;23.244;2023-05-21T06:36:57;94050.41;;;23.43;nan
10732;BME280;5417;42.686;23.244;2023-05-21T06:39:24;94039.59;;;23.38;nan
10732;BME280;5417;42.686;23.244;2023-05-21T06:42:13;94047.84;;;23.17;nan
10732;BME280;5417;42.686;23.244;2023-05-21T06:45:03;94041.78;;;23.03;nan
10732;BME280;5417;42.686;23.244;2023-05-21T06:50:54;94034.66;;;22.77;nan
10732;BME280;5417;42.686;23.244;2023-05-21T06:53:21;94044.31;;;22.58;nan
10732;BME280;5417;42.686;23.244;2023-05-21T06:56:02;94035.31;;;22.59;nan
10732;BME280;5417;42.686;23.244;2023-05-21T06:59:37;94045.09;;;22.72;nan
10732;BME280;5417;42.686;23.244;2023-05-21T07:02:22;94045.50;;;22.62;nan
10732;BME280;5417;42.686;23.244;2023-05-21T07:08:19;94035.06;;;22.74;nan
10732;BME280;5417;42.686;23.244;2023-05-21T07:18:03;94040.78;;;22.78;nan
10732;BME280;5417;42.686;23.244;2023-05-21T07:30:03;94038.16;;;22.91;nan
10732;BME280;5417;42.686;23.244;2023-05-21T07:32:30;94038.03;;;23.17;nan
10732;BME280;5417;42.686;23.244;2023-05-21T07:35:52;94031.00;;;23.36;nan
10732;BME280;5417;42.686;23.244;2023-05-21T07:38:09;94030.78;;;23.38;nan
10732;BME280;5417;42.686;23.244;2023-05-21T07:41:39;94042.22;;;23.38;nan
10732;BME280;5417;42.686;23.244;2023-05-21T07:43:52;94034.72;;;23.28;nan
10732;BME280;5417;42.686;23.244;2023-05-21T07:46:38;94037.13;;;23.37;nan
10732;BME280;5417;42.686;23.244;2023-05-21T07:49:05;94034.00;;;23.08;nan
10732;BME280;5417;42.686;23.244;2023-05-21T07:57:37;94023.81;;;23.56;nan
10732;BME280;5417;42.686;23.244;2023-05-21T08:10:26;94024.81;;;23.94;nan
10732;BME280;5417;42.686;23.244;2023-05-21T08:15:49;94038.91;;;23.05;nan
10732;BME280;5417;42.686;23.244;2023-05-21T08:18:17;94041.41;;;22.73;nan
10732;BME280;5417;42.686;23.244;2023-05-21T08:27:03;94033.19;;;21.49;nan
10732;BME280;5417;42.686;23.244;2023-05-21T08:29:30;94048.19;;;21.29;nan
10732;BME280;5417;42.686;23.244;2023-05-21T08:35:52;94082.91;;;21.06;nan
10732;BME280;5417;42.686;23.244;2023-05-21T08:54:55;94034.44;;;20.64;nan
10732;BME280;5417;42.686;23.244;2023-05-21T08:57:26;94037.50;;;20.68;nan
10732;BME280;5417;42.686;23.244;2023-05-21T09:00:41;94033.75;;;20.84;nan
10732;BME280;5417;42.686;23.244;2023-05-21T09:04:31;94042.59;;;21.10;nan
10732;BME280;5417;42.686;23.244;2023-05-21T09:06:19;94053.78;;;21.06;nan
10732;BME280;5417;42.686;23.244;2023-05-21T09:11:53;94038.53;;;21.08;nan
10732;BME280;5417;42.686;23.244;2023-05-21T09:18:12;94041.91;;;20.89;nan
10732;BME280;5417;42.686;23.244;2023-05-21T09:38:16;94016.72;;;21.60;nan
10732;BME280;5417;42.686;23.244;2023-05-21T09:40:43;94027.53;;;21.72;nan
10732;BME280;5417;42.686;23.244;2023-05-21T09:43:15;94023.91;;;21.93;nan
10732;BME280;5417;42.686;23.244;2023-05-21T09:45:52;94007.19;;;21.99;nan
10732;BME280;5417;42.686;23.244;2023-05-21T09:57:03;94029.44;;;22.44;nan
10732;BME280;5417;42.686;23.244;2023-05-21T09:59:37;94013.09;;;22.47;nan
10732;BME280;5417;42.686;23.244;2023-05-21T10:03:08;94027.00;;;22.43;nan
10732;BME280;5417;42.686;23.244;2023-05-21T10:31:19;93984.09;;;22.65;nan
10732;BME280;5417;42.686;23.244;2023-05-21T10:34:09;93998.13;;;22.79;nan
10732;BME280;5417;42.686;23.244;2023-05-21T10:37:01;94002.47;;;22.60;nan
10732;BME280;5417;42.686;23.244;2023-05-21T10:39:31;93998.63;;;22.36;nan
10732;BME280;5417;42.686;23.244;2023-05-21T10:42:19;93990.66;;;22.36;nan
10732;BME280;5417;42.686;23.244;2023-05-21T10:45:00;93997.38;;;22.52;nan
10732;BME280;5417;42.686;23.244;2023-05-21T10:57:02;94003.13;;;21.96;nan
10732;BME280;5417;42.686;23.244;2023-05-21T11:00:03;94007.34;;;21.78;nan
10732;BME280;5417;42.686;23.244;2023-05-21T11:24:34;93990.38;;;21.32;nan
10732;BME280;5417;42.686;23.244;2023-05-21T11:27:03;93993.78;;;21.20;nan
10732;BME280;5417;42.686;23.244;2023-05-21T11:29:39;93994.78;;;21.12;nan
10732;BME280;5417;42.686;23.244;2023-05-21T11:36:24;93988.53;;;21.26;nan
10732;BME280;5417;42.686;23.244;2023-05-21T11:42:32;93971.66;;;21.34;nan
10732;BME280;5417;42.686;23.244;2023-05-21T11:54:43;93962.06;;;21.26;nan
10732;BME280;5417;42.686;23.244;2023-05-21T11:57:13;93967.31;;;21.20;nan
10732;BME280;5417;42.686;23.244;2023-05-21T11:59:48;93972.59;;;21.20;nan
10732;BME280;5417;42.686;23.244;2023-05-21T12:02:51;93969.34;;;21.18;nan
10732;BME280;5417;42.686;23.244;2023-05-21T12:05:19;93970.91;;;20.99;nan
10732;BME280;5417;42.686;23.244;2023-05-21T12:07:47;93970.28;;;20.97;nan
10732;BME280;5417;42.686;23.244;2023-05-21T12:10:52;93960.38;;;21.12;nan
10732;BME280;5417;42.686;23.244;2023-05-21T12:14:07;93962.56;;;20.95;nan
10732;BME280;5417;42.686;23.244;2023-05-21T12:16:36;93951.47;;;20.72;nan
10732;BME280;5417;42.686;23.244;2023-05-21T12:19:57;93965.09;;;20.69;nan
10732;BME280;5417;42.686;23.244;2023-05-21T12:25:43;93964.66;;;20.65;nan
10732;BME280;5417;42.686;23.244;2023-05-21T12:28:10;93961.78;;;20.60;nan
10732;BME280;5417;42.686;23.244;2023-05-21T12:30:37;93959.56;;;20.64;nan
10732;BME280;5417;42.686;23.244;2023-05-21T12:33:06;93964.25;;;20.62;nan
10732;BME280;5417;42.686;23.244;2023-05-21T12:35:32;93959.56;;;20.64;nan
10732;BME280;5417;42.686;23.244;2023-05-21T12:38:00;93962.41;;;20.62;nan
10732;BME280;5417;42.686;23.244;2023-05-21T12:40:33;93954.47;;;20.62;nan
10732;BME280;5417;42.686;23.244;2023-05-21T12:43:01;93957.91;;;20.56;nan
10732;BME280;5417;42.686;23.244;2023-05-21T12:45:54;93945.09;;;20.60;nan
10732;BME280;5417;42.686;23.244;2023-05-21T12:48:23;93948.41;;;20.75;nan
10732;BME280;5417;42.686;23.244;2023-05-21T12:50:54;93950.25;;;20.74;nan
10732;BME280;5417;42.686;23.244;2023-05-21T12:53:44;93939.66;;;20.68;nan
10732;BME280;5417;42.686;23.244;2023-05-21T12:57:20;93944.03;;;20.47;nan
10732;BME280;5417;42.686;23.244;2023-05-21T12:59:49;93938.75;;;20.47;nan
10732;BME280;5417;42.686;23.244;2023-05-21T13:18:50;93944.63;;;20.43;nan
10732;BME280;5417;42.686;23.244;2023-05-21T13:21:19;93946.25;;;20.44;nan
10732;BME280;5417;42.686;23.244;2023-05-21T13:23:46;93942.81;;;20.43;nan
10732;BME280;5417;42.686;23.244;2023-05-21T13:26:13;93934.91;;;20.50;nan
10732;BME280;5417;42.686;23.244;2023-05-21T13:28:39;93941.44;;;20.54;nan
10732;BME280;5417;42.686;23.244;2023-05-21T13:31:06;93929.03;;;20.55;nan
10732;BME280;5417;42.686;23.244;2023-05-21T13:33:34;93936.22;;;20.74;nan
10732;BME280;5417;42.686;23.244;2023-05-21T13:36:02;93918.91;;;20.71;nan
10732;BME280;5417;42.686;23.244;2023-05-21T13:38:29;93922.03;;;20.88;nan
10732;BME280;5417;42.686;23.244;2023-05-21T13:40:56;93932.44;;;21.03;nan
10732;BME280;5417;42.686;23.244;2023-05-21T13:53:45;93935.31;;;21.01;nan
10732;BME280;5417;42.686;23.244;2023-05-21T14:09:18;93914.94;;;21.02;nan
10732;BME280;5417;42.686;23.244;2023-05-21T14:16:15;93917.75;;;20.87;nan
10732;BME280;5417;42.686;23.244;2023-05-21T14:18:42;93906.72;;;20.77;nan
10732;BME280;5417;42.686;23.244;2023-05-21T14:21:09;93912.25;;;20.82;nan
10732;BME280;5417;42.686;23.244;2023-05-21T14:23:37;93907.34;;;20.79;nan
10732;BME280;5417;42.686;23.244;2023-05-21T14:26:23;93915.66;;;20.76;nan
10732;BME280;5417;42.686;23.244;2023-05-21T14:28:50;93925.44;;;20.75;nan
10732;BME280;5417;42.686;23.244;2023-05-21T14:32:11;93923.59;;;20.76;nan
10732;BME280;5417;42.686;23.244;2023-05-21T14:34:31;93907.94;;;20.74;nan
10732;BME280;5417;42.686;23.244;2023-05-21T14:37:22;93920.22;;;20.95;nan
10732;BME280;5417;42.686;23.244;2023-05-21T14:43:36;93924.50;;;20.96;nan
10732;BME280;5417;42.686;23.244;2023-05-21T14:46:03;93915.53;;;20.84;nan
10732;BME280;5417;42.686;23.244;2023-05-21T14:48:30;93924.50;;;20.90;nan
10732;BME280;5417;42.686;23.244;2023-05-21T14:51:51;93927.94;;;20.84;nan
10732;BME280;5417;42.686;23.244;2023-05-21T14:54:09;93927.69;;;20.78;nan
10732;BME280;5417;42.686;23.244;2023-05-21T14:56:36;93919.09;;;20.70;nan
10732;BME280;5417;42.686;23.244;2023-05-21T14:59:07;93921.75;;;20.70;nan
10732;BME280;5417;42.686;23.244;2023-05-21T15:01:35;93921.75;;;20.70;nan
10732;BME280;5417;42.686;23.244;2023-05-21T15:04:26;93926.44;;;20.74;nan
10732;BME280;5417;42.686;23.244;2023-05-21T15:06:54;93909.53;;;20.69;nan
10732;BME280;5417;42.686;23.244;2023-05-21T15:22:48;93924.75;;;20.54;nan
10732;BME280;5417;42.686;23.244;2023-05-21T15:37:56;93927.44;;;20.67;nan
10732;BME280;5417;42.686;23.244;2023-05-21T15:40:23;93929.47;;;20.65;nan
10732;BME280;5417;42.686;23.244;2023-05-21T15:43:03;93928.22;;;20.54;nan
10732;BME280;5417;42.686;23.244;2023-05-21T16:19:32;93936.34;;;20.25;nan
10732;BME280;5417;42.686;23.244;2023-05-21T16:34:59;93947.31;;;19.87;nan
10732;BME280;5417;42.686;23.244;2023-05-21T16:37:26;93954.69;;;19.98;nan
10732;BME280;5417;42.686;23.244;2023-05-21T16:39:53;93954.34;;;19.80;nan
10732;BME280;5417;42.686;23.244;2023-05-21T16:42:20;93963.16;;;19.66;nan
10732;BME280;5417;42.686;23.244;2023-05-21T16:48:12;93966.31;;;19.54;nan
10732;BME280;5417;42.686;23.244;2023-05-21T16:50:41;93964.75;;;19.60;nan
10732;BME280;5417;42.686;23.244;2023-05-21T16:53:08;93963.09;;;19.59;nan
10732;BME280;5417;42.686;23.244;2023-05-21T17:19:31;93983.81;;;19.19;nan
10732;BME280;5417;42.686;23.244;2023-05-21T17:41:51;93986.41;;;18.98;nan
10732;BME280;5417;42.686;23.244;2023-05-21T17:44:33;93987.53;;;18.89;nan
10732;BME280;5417;42.686;23.244;2023-05-21T17:47:00;93993.81;;;18.88;nan
10732;BME280;5417;42.686;23.244;2023-05-21T17:49:27;93989.72;;;18.85;nan
10732;BME280;5417;42.686;23.244;2023-05-21T17:58:26;93996.19;;;18.83;nan
10732;BME280;5417;42.686;23.244;2023-05-21T18:19:39;94014.88;;;18.58;nan
10732;BME280;5417;42.686;23.244;2023-05-21T18:22:06;94010.72;;;18.49;nan
10732;BME280;5417;42.686;23.244;2023-05-21T18:32:00;94029.06;;;18.43;nan
10732;BME280;5417;42.686;23.244;2023-05-21T18:34:27;94033.06;;;18.39;nan
10732;BME280;5417;42.686;23.244;2023-05-21T18:49:33;94035.75;;;18.16;nan
10732;BME280;5417;42.686;23.244;2023-05-21T18:52:00;94039.22;;;18.16;nan
10732;BME280;5417;42.686;23.244;2023-05-21T18:54:29;94049.25;;;18.21;nan
10732;BME280;5417;42.686;23.244;2023-05-21T18:56:56;94058.78;;;18.22;nan
10732;BME280;5417;42.686;23.244;2023-05-21T18:59:50;94063.03;;;18.23;nan
10732;BME280;5417;42.686;23.244;2023-05-21T19:02:17;94068.22;;;18.31;nan
10732;BME280;5417;42.686;23.244;2023-05-21T19:04:45;94064.41;;;18.34;nan
10732;BME280;5417;42.686;23.244;2023-05-21T19:10:40;94076.91;;;18.17;nan
10732;BME280;5417;42.686;23.244;2023-05-21T19:16:28;94080.19;;;18.19;nan
10732;BME280;5417;42.686;23.244;2023-05-21T19:18:55;94089.69;;;18.05;nan
10732;BME280;5417;42.686;23.244;2023-05-21T19:21:24;94077.13;;;17.92;nan
10732;BME280;5417;42.686;23.244;2023-05-21T19:27:39;94080.69;;;18.00;nan
10732;BME280;5417;42.686;23.244;2023-05-21T19:34:12;94070.13;;;17.85;nan
10732;BME280;5417;42.686;23.244;2023-05-21T19:58:20;94084.97;;;18.01;nan
10732;BME280;5417;42.686;23.244;2023-05-21T20:04:03;94083.75;;;17.88;nan
10732;BME280;5417;42.686;23.244;2023-05-21T20:06:29;94076.31;;;17.92;nan
10732;BME280;5417;42.686;23.244;2023-05-21T20:09:20;94082.94;;;17.88;nan
10732;BME280;5417;42.686;23.244;2023-05-21T20:12:28;94085.31;;;17.97;nan
10732;BME280;5417;42.686;23.244;2023-05-21T20:14:46;94093.03;;;17.99;nan
10732;BME280;5417;42.686;23.244;2023-05-21T20:17:58;94081.75;;;17.90;nan
10732;BME280;5417;42.686;23.244;2023-05-21T20:20:25;94080.94;;;17.90;nan
10732;BME280;5417;42.686;23.244;2023-05-21T20:22:52;94081.34;;;17.79;nan
10732;BME280;5417;42.686;23.244;2023-05-21T20:25:22;94082.00;;;17.81;nan
10732;BME280;5417;42.686;23.244;2023-05-21T20:27:48;94079.25;;;17.74;nan
10732;BME280;5417;42.686;23.244;2023-05-21T20:30:17;94081.06;;;17.74;nan
10732;BME280;5417;42.686;23.244;2023-05-21T20:58:37;94080.75;;;17.38;nan
10732;BME280;5417;42.686;23.244;2023-05-21T21:30:58;94092.97;;;17.30;nan
10732;BME280;5417;42.686;23.244;2023-05-21T21:33:25;94088.59;;;17.23;nan
10732;BME280;5417;42.686;23.244;2023-05-21T21:36:47;94095.78;;;17.29;nan
10732;BME280;5417;42.686;23.244;2023-05-21T21:39:28;94094.84;;;17.22;nan
10732;BME280;5417;42.686;23.244;2023-05-21T21:41:55;94096.19;;;17.18;nan
10732;BME280;5417;42.686;23.244;2023-05-21T21:45:16;94093.66;;;17.24;nan
10732;BME280;5417;42.686;23.244;2023-05-21T21:47:38;94102.91;;;17.20;nan
10732;BME280;5417;42.686;23.244;2023-05-21T21:50:30;94102.25;;;17.18;nan
10732;BME280;5417;42.686;23.244;2023-05-21T21:52:57;94097.00;;;17.18;nan
10732;BME280;5417;42.686;23.244;2023-05-21T21:55:25;94103.06;;;17.19;nan
10732;BME280;5417;42.686;23.244;2023-05-21T21:58:16;94103.72;;;17.13;nan
10732;BME280;5417;42.686;23.244;2023-05-21T22:00:44;94101.44;;;17.10;nan
10732;BME280;5417;42.686;23.244;2023-05-21T22:03:31;94103.44;;;17.08;nan
10732;BME280;5417;42.686;23.244;2023-05-21T22:06:52;94099.97;;;17.07;nan
10732;BME280;5417;42.686;23.244;2023-05-21T22:28:29;94083.28;;;16.92;nan
10732;BME280;5417;42.686;23.244;2023-05-21T22:34:10;94080.84;;;16.90;nan
10732;BME280;5417;42.686;23.244;2023-05-21T22:43:40;94069.19;;;16.85;nan
10732;BME280;5417;42.686;23.244;2023-05-21T22:58:33;94069.75;;;16.72;nan
10732;BME280;5417;42.686;23.244;2023-05-21T23:04:16;94067.91;;;16.64;nan
10732;BME280;5417;42.686;23.244;2023-05-21T23:06:43;94062.81;;;16.63;nan
10732;BME280;5417;42.686;23.244;2023-05-21T23:09:10;94059.38;;;16.62;nan
10732;BME280;5417;42.686;23.244;2023-05-21T23:12:31;94063.81;;;16.62;nan
10732;BME280;5417;42.686;23.244;2023-05-21T23:15:15;94058.72;;;16.60;nan
10732;BME280;5417;42.686;23.244;2023-05-21T23:18:38;94059.38;;;16.62;nan
10732;BME280;5417;42.686;23.244;2023-05-21T23:21:00;94066.78;;;16.59;nan
10732;BME280;5417;42.686;23.244;2023-05-21T23:26:55;94052.50;;;16.53;nan
10732;BME280;5417;42.686;23.244;2023-05-21T23:33:11;94054.47;;;16.51;nan
10732;BME280;5417;42.686;23.244;2023-05-21T23:35:39;94051.72;;;16.45;nan
10732;BME280;5417;42.686;23.244;2023-05-21T23:38:07;94054.03;;;16.39;nan
10732;BME280;5417;42.686;23.244;2023-05-21T23:40:34;94046.00;;;16.33;nan
10732;BME280;5417;42.686;23.244;2023-05-21T23:43:04;94051.44;;;16.31;nan
10732;BME280;5417;42.686;23.244;2023-05-21T23:45:31;94048.81;;;16.31;nan
10732;BME280;5417;42.686;23.244;2023-05-21T23:48:21;94052.75;;;16.27;nan
10732;BME280;5417;42.686;23.244;2023-05-21T23:50:48;94053.09;;;16.24;nan
10732;BME280;5417;42.686;23.244;2023-05-21T23:53:30;94045.38;;;16.23;nan
10732;BME280;5417;42.686;23.244;2023-05-21T23:55:59;94032.75;;;16.18;nan
10732;BME280;5417;42.686;23.244;2023-05-21T23:59:24;94043.75;;;16.22;nan
